createdAt,value
2023-03-17T00:00:23.636Z,64.30
2023-03-17T00:03:51.180Z,55.10
2023-03-17T00:06:59.935Z,42.00
2023-03-17T00:10:14.321Z,38.90
2023-03-17T00:13:41.361Z,44.10
2023-03-17T00:17:12.048Z,48.00
2023-03-17T00:20:39.131Z,44.60
2023-03-17T00:24:07.053Z,45.10
2023-03-17T00:27:34.523Z,44.40
2023-03-17T00:31:03.792Z,44.00
2023-03-17T00:34:30.706Z,45.20
2023-03-17T00:37:57.594Z,46.80
2023-03-17T00:41:24.872Z,49.40
2023-03-17T00:44:53.855Z,44.70
2023-03-17T00:48:34.633Z,42.30
2023-03-17T00:52:02.464Z,48.00
2023-03-17T00:55:29.623Z,44.50
2023-03-17T00:59:03.829Z,40.70
2023-03-17T01:02:32.393Z,42.90
2023-03-17T01:05:52.011Z,39.20
2023-03-17T01:09:07.364Z,37.00
2023-03-17T01:12:43.248Z,37.00
2023-03-17T01:16:12.958Z,38.60
2023-03-17T01:22:48.981Z,35.50
2023-03-17T01:25:59.038Z,38.60
2023-03-17T01:29:17.510Z,37.40
2023-03-17T01:32:53.142Z,36.70
2023-03-17T01:35:45.424Z,34.40
2023-03-17T01:39:03.474Z,34.20
2023-03-17T01:42:18.310Z,36.60
2023-03-17T01:46:03.550Z,25.40
2023-03-17T01:49:21.634Z,23.80
2023-03-17T01:53:04.875Z,29.90
2023-03-17T01:56:51.929Z,35.90
2023-03-17T02:03:58.254Z,33.50
2023-03-17T02:07:25.266Z,33.60
2023-03-17T02:10:52.514Z,34.10
2023-03-17T02:14:20.126Z,34.90
2023-03-17T02:18:07.186Z,34.00
2023-03-17T02:21:42.090Z,30.30
2023-03-17T02:25:16.129Z,28.80
2023-03-17T02:29:06.074Z,29.40
2023-03-17T02:32:32.864Z,32.30
2023-03-17T02:36:19.741Z,27.20
2023-03-17T02:40:06.578Z,27.60
2023-03-17T02:43:48.262Z,30.30
2023-03-17T02:47:15.063Z,34.40
2023-03-17T02:50:42.468Z,40.70
2023-03-17T02:54:19.303Z,37.40
2023-03-17T02:58:06.149Z,31.60
2023-03-17T03:01:33.413Z,34.30
2023-03-17T03:05:01.198Z,36.60
2023-03-17T03:08:32.551Z,40.10
2023-03-17T03:12:19.723Z,40.50
2023-03-17T03:15:39.667Z,32.70
2023-03-17T03:19:08.132Z,37.40
2023-03-17T03:22:35.246Z,31.80
2023-03-17T03:26:04.982Z,30.80
2023-03-17T03:29:32.265Z,33.90
2023-03-17T03:33:00.374Z,35.90
2023-03-17T03:36:36.227Z,38.50
2023-03-17T03:40:10.446Z,34.60
2023-03-17T03:43:38.030Z,35.90
2023-03-17T03:47:05.054Z,35.10
2023-03-17T03:50:33.794Z,34.80
2023-03-17T03:54:20.722Z,39.00
2023-03-17T03:57:49.121Z,33.80
2023-03-17T04:01:16.620Z,30.30
2023-03-17T04:04:43.307Z,33.00
2023-03-17T04:07:52.345Z,32.50
2023-03-17T04:10:45.264Z,34.30
2023-03-17T04:13:52.439Z,32.00
2023-03-17T04:17:00.407Z,33.50
2023-03-17T04:19:47.920Z,34.90
2023-03-17T04:22:47.483Z,40.30
2023-03-17T04:25:54.252Z,33.60
2023-03-17T04:29:21.137Z,33.30
2023-03-17T04:32:19.552Z,38.30
2023-03-17T04:35:55.148Z,29.30
2023-03-17T04:39:02.445Z,33.00
2023-03-17T04:42:11.623Z,34.60
2023-03-17T04:49:25.560Z,34.10
2023-03-17T04:53:03.412Z,27.30
2023-03-17T04:56:11.358Z,27.30
2023-03-17T04:59:00.493Z,29.40
2023-03-17T05:02:12.057Z,29.20
2023-03-17T05:05:24.399Z,32.60
2023-03-17T05:08:51.309Z,31.40
2023-03-17T05:11:42.516Z,30.20
2023-03-17T05:15:09.616Z,29.30
2023-03-17T05:18:31.932Z,33.50
2023-03-17T05:21:47.135Z,33.20
2023-03-17T05:25:13.640Z,30.90
2023-03-17T05:28:40.864Z,22.60
2023-03-17T05:32:07.764Z,26.40
2023-03-17T05:35:38.041Z,29.10
2023-03-17T05:39:06.949Z,25.70
2023-03-17T05:42:33.806Z,24.30
2023-03-17T05:46:23.464Z,31.80
2023-03-17T05:50:08.351Z,21.00
2023-03-17T05:53:56.247Z,26.00
2023-03-17T05:57:45.166Z,28.20
2023-03-17T06:01:32.916Z,21.70
2023-03-17T06:05:20.788Z,25.20
2023-03-17T06:09:07.565Z,21.60
2023-03-17T06:12:55.620Z,21.30
2023-03-17T06:16:45.925Z,23.00
2023-03-17T06:24:27.013Z,23.80
2023-03-17T06:32:20.360Z,20.50
2023-03-17T06:35:59.097Z,20.70
2023-03-17T06:39:46.716Z,21.60
2023-03-17T06:43:35.467Z,17.30
2023-03-17T06:47:24.800Z,18.40
2023-03-17T06:51:10.549Z,16.90
2023-03-17T06:55:01.196Z,16.40
2023-03-17T06:58:48.064Z,16.40
2023-03-17T07:02:39.348Z,13.20
2023-03-17T07:06:27.089Z,17.50
2023-03-17T07:10:14.568Z,17.30
2023-03-17T07:14:01.770Z,17.40
2023-03-17T07:17:49.292Z,17.80
2023-03-17T07:21:36.485Z,14.40
2023-03-17T07:25:25.019Z,13.70
2023-03-17T07:29:11.895Z,14.20
2023-03-17T07:32:44.784Z,12.60
2023-03-17T07:36:12.233Z,12.50
2023-03-17T07:39:44.763Z,10.00
2023-03-17T07:42:34.497Z,14.60
2023-03-17T07:45:26.071Z,9.90
2023-03-17T07:48:00.811Z,10.20
2023-03-17T07:50:30.342Z,8.30
2023-03-17T07:53:19.002Z,11.20
2023-03-17T07:56:12.280Z,11.50
2023-03-17T07:59:28.949Z,10.70
2023-03-17T08:02:30.212Z,7.20
2023-03-17T08:05:17.807Z,7.40
2023-03-17T08:08:04.986Z,9.50
2023-03-17T08:10:54.223Z,8.90
2023-03-17T08:13:27.539Z,7.10
2023-03-17T08:15:59.676Z,7.20
2023-03-17T08:18:27.631Z,5.10
2023-03-17T08:21:00.897Z,5.60
2023-03-17T08:23:51.616Z,6.20
2023-03-17T08:26:25.144Z,6.80
2023-03-17T08:28:52.900Z,5.20
2023-03-17T08:31:24.569Z,5.40
2023-03-17T08:33:58.253Z,6.50
2023-03-17T08:36:46.368Z,5.90
2023-03-17T08:39:18.079Z,6.00
2023-03-17T08:41:46.780Z,4.60
2023-03-17T08:44:17.608Z,6.10
2023-03-17T08:46:45.355Z,5.00
2023-03-17T08:49:13.477Z,6.70
2023-03-17T08:51:42.800Z,7.80
2023-03-17T08:54:11.599Z,6.00
2023-03-17T08:56:41.335Z,6.20
2023-03-17T08:59:20.329Z,9.80
2023-03-17T09:02:08.044Z,7.20
2023-03-17T09:04:40.077Z,7.10
2023-03-17T09:07:29.100Z,5.10
2023-03-17T09:10:01.337Z,5.10
2023-03-17T09:12:29.409Z,5.60
2023-03-17T09:14:58.075Z,4.70
2023-03-17T09:17:30.652Z,4.80
2023-03-17T09:20:17.872Z,7.60
2023-03-17T09:22:48.263Z,4.70
2023-03-17T09:25:20.262Z,4.80
2023-03-17T09:27:49.059Z,5.60
2023-03-17T09:30:20.251Z,5.30
2023-03-17T09:32:47.718Z,5.20
2023-03-17T09:35:15.678Z,4.90
2023-03-17T09:37:43.355Z,6.90
2023-03-17T09:40:28.551Z,4.60
2023-03-17T09:43:30.816Z,4.50
2023-03-17T09:46:28.793Z,3.80
2023-03-17T09:49:08.004Z,4.30
2023-03-17T09:51:39.307Z,5.50
2023-03-17T09:54:28.355Z,4.90
2023-03-17T09:57:07.079Z,4.00
2023-03-17T09:59:50.364Z,4.60
2023-03-17T10:02:50.456Z,3.60
2023-03-17T10:05:23.807Z,5.00
2023-03-17T10:08:30.068Z,4.60
2023-03-17T10:11:26.923Z,4.70
2023-03-17T10:14:10.691Z,4.10
2023-03-17T10:16:59.017Z,4.00
2023-03-17T10:19:57.227Z,3.10
2023-03-17T10:22:50.114Z,4.10
2023-03-17T10:25:39.062Z,4.10
2023-03-17T10:28:27.128Z,7.00
2023-03-17T10:31:11.656Z,5.20
2023-03-17T10:34:05.831Z,4.50
2023-03-17T10:36:47.654Z,3.60
2023-03-17T11:06:45.872Z,4.00
2023-03-17T11:09:57.963Z,3.00
2023-03-17T11:13:26.338Z,3.50
2023-03-17T11:16:18.213Z,2.70
2023-03-17T11:18:55.536Z,3.70
2023-03-17T11:22:35.111Z,4.00
2023-03-17T11:26:17.665Z,3.50
2023-03-17T11:30:14.823Z,3.90
2023-03-17T11:33:51.391Z,3.50
2023-03-17T11:37:45.505Z,3.10
2023-03-17T11:41:45.451Z,5.00
2023-03-17T11:46:00.285Z,5.00
2023-03-17T11:49:51.328Z,4.00
2023-03-17T11:53:42.361Z,5.20
2023-03-17T11:57:32.811Z,4.40
2023-03-17T12:01:32.798Z,3.60
2023-03-17T12:12:32.453Z,4.40
2023-03-17T12:16:11.153Z,5.10
2023-03-17T12:19:48.499Z,5.30
2023-03-17T12:23:43.302Z,4.60
2023-03-17T12:27:52.632Z,4.60
2023-03-17T12:31:49.103Z,5.30
2023-03-17T12:35:52.605Z,5.30
2023-03-17T12:39:55.181Z,4.70
2023-03-17T12:43:52.305Z,6.30
2023-03-17T12:47:48.941Z,4.80
2023-03-17T12:51:45.470Z,5.40
2023-03-17T12:55:32.875Z,4.30
2023-03-17T12:59:26.653Z,6.30
2023-03-17T13:03:17.412Z,5.50
2023-03-17T13:07:04.754Z,5.00
2023-03-17T13:10:59.901Z,5.00
2023-03-17T13:14:50.674Z,4.00
2023-03-17T13:18:54.038Z,8.40
2023-03-17T13:22:43.247Z,5.20
2023-03-17T13:26:33.977Z,5.50
2023-03-17T13:30:13.614Z,5.30
2023-03-17T13:33:51.047Z,5.20
2023-03-17T13:37:44.086Z,4.00
2023-03-17T13:41:47.788Z,4.00
2023-03-17T13:45:38.569Z,4.30
2023-03-17T13:49:28.441Z,6.30
2023-03-17T13:53:19.723Z,4.90
2023-03-17T13:57:22.855Z,6.40
2023-03-17T14:01:12.225Z,5.30
2023-03-17T14:04:59.460Z,6.80
2023-03-17T14:08:59.809Z,7.10
2023-03-17T14:12:58.434Z,8.20
2023-03-17T14:16:57.484Z,6.20
2023-03-17T14:20:48.469Z,4.80
2023-03-17T14:24:35.671Z,4.50
2023-03-17T14:28:22.584Z,7.70
2023-03-17T14:31:54.692Z,6.90
2023-03-17T14:35:44.785Z,9.10
2023-03-17T14:38:53.990Z,5.00
2023-03-17T14:42:17.689Z,5.30
2023-03-17T14:45:46.824Z,6.90
2023-03-17T14:49:13.875Z,6.10
2023-03-17T14:52:38.633Z,5.90
2023-03-17T14:56:09.980Z,6.70
2023-03-17T14:59:22.444Z,6.20
2023-03-17T15:03:15.300Z,6.20
2023-03-17T15:06:37.459Z,6.00
2023-03-17T15:10:14.286Z,7.50
2023-03-17T15:13:22.893Z,5.30
2023-03-17T15:17:01.181Z,7.30
2023-03-17T15:20:35.936Z,5.50
2023-03-17T15:23:43.738Z,8.60
2023-03-17T15:27:10.724Z,6.00
2023-03-17T15:33:48.520Z,6.90
2023-03-17T15:36:58.017Z,5.90
2023-03-17T15:40:25.067Z,7.20
2023-03-17T15:43:53.838Z,7.30
2023-03-17T15:47:21.330Z,7.30
2023-03-17T15:50:49.433Z,8.80
2023-03-17T15:53:59.476Z,7.70
2023-03-17T15:57:07.526Z,9.00
2023-03-17T16:00:19.354Z,7.10
2023-03-17T16:04:05.088Z,6.70
2023-03-17T16:07:25.383Z,7.80
2023-03-17T16:10:58.302Z,7.10
2023-03-17T16:14:25.323Z,7.40
2023-03-17T16:17:56.780Z,7.50
2023-03-17T16:21:18.458Z,6.20
2023-03-17T16:24:45.795Z,7.80
2023-03-17T16:27:47.930Z,7.90
2023-03-17T16:31:05.085Z,27.50
2023-03-17T16:34:57.817Z,6.70
2023-03-17T16:38:20.193Z,8.60
2023-03-17T16:41:23.176Z,7.60
2023-03-17T16:44:53.898Z,9.70
2023-03-17T16:47:31.302Z,8.80
2023-03-17T16:50:41.021Z,9.30
2023-03-17T16:53:56.167Z,9.50
2023-03-17T16:57:06.009Z,12.90
2023-03-17T17:00:34.361Z,13.20
2023-03-17T17:04:03.214Z,11.40
2023-03-17T17:07:30.317Z,12.50
2023-03-17T17:14:20.945Z,9.30
2023-03-17T17:17:31.070Z,8.40
2023-03-17T17:21:09.800Z,11.20
2023-03-17T17:24:22.973Z,9.80
2023-03-17T17:27:54.149Z,7.90
2023-03-17T17:31:21.357Z,8.60
2023-03-17T17:34:50.363Z,8.90
2023-03-17T17:38:09.384Z,9.40
2023-03-17T17:41:21.472Z,12.00
2023-03-17T17:44:36.959Z,10.60
2023-03-17T17:47:35.600Z,14.90
2023-03-17T17:51:12.458Z,11.10
2023-03-17T17:55:00.086Z,11.80
2023-03-17T17:58:48.176Z,17.30
2023-03-17T18:02:06.590Z,15.80
2023-03-17T18:05:18.907Z,16.80
2023-03-17T18:08:28.152Z,16.60
2023-03-17T18:11:31.425Z,41.80
2023-03-17T18:14:33.996Z,22.10
2023-03-17T18:17:51.319Z,19.70
2023-03-17T18:21:07.064Z,19.30
2023-03-17T18:24:27.098Z,17.20
2023-03-17T18:28:01.541Z,20.30
2023-03-17T18:31:30.975Z,18.70
2023-03-17T18:35:15.972Z,17.00
2023-03-17T18:39:04.074Z,17.00
2023-03-17T18:42:52.212Z,20.70
2023-03-17T18:46:20.501Z,21.90
2023-03-17T18:49:55.942Z,17.80
2023-03-17T18:53:08.184Z,17.00
2023-03-17T18:56:30.311Z,16.20
2023-03-17T18:59:48.991Z,17.50
2023-03-17T19:02:58.705Z,16.50
2023-03-17T19:06:03.138Z,15.90
2023-03-17T19:09:30.870Z,20.90
2023-03-17T19:12:21.107Z,19.30
2023-03-17T19:15:16.436Z,17.30
2023-03-17T19:21:09.843Z,19.20
2023-03-17T19:24:22.917Z,17.50
2023-03-17T19:28:01.763Z,18.40
2023-03-17T19:31:30.910Z,15.80
2023-03-17T19:34:59.048Z,16.40
2023-03-17T19:38:27.779Z,16.30
2023-03-17T19:41:18.946Z,19.90
2023-03-17T19:44:47.350Z,17.90
2023-03-17T19:47:36.446Z,18.30
2023-03-17T19:50:20.128Z,18.80
2023-03-17T19:53:31.061Z,15.50
2023-03-17T19:57:20.704Z,18.70
2023-03-17T20:00:55.287Z,17.30
2023-03-17T20:04:32.470Z,18.70
2023-03-17T20:08:00.444Z,19.10
2023-03-17T20:11:14.709Z,23.50
2023-03-17T20:14:29.195Z,16.90
2023-03-17T20:17:03.407Z,20.50
2023-03-17T20:19:57.712Z,18.30
2023-03-17T20:23:08.926Z,19.00
2023-03-17T20:25:53.541Z,22.40
2023-03-17T20:28:52.651Z,18.10
2023-03-17T20:32:00.588Z,18.70
2023-03-17T20:34:54.736Z,18.00
2023-03-17T20:37:26.319Z,21.00
2023-03-17T20:40:06.628Z,19.10
2023-03-17T20:42:58.162Z,21.40
2023-03-17T20:45:36.708Z,18.50
2023-03-17T20:48:28.427Z,18.40
2023-03-17T20:51:18.218Z,15.30
2023-03-17T20:54:18.156Z,19.10
2023-03-17T20:56:54.047Z,18.80
2023-03-17T20:59:25.180Z,18.10
2023-03-17T21:02:08.342Z,22.00
2023-03-17T21:04:42.671Z,17.50
2023-03-17T21:07:45.631Z,20.40
2023-03-17T21:10:24.178Z,19.20
2023-03-17T21:13:12.865Z,22.40
2023-03-17T21:15:54.975Z,19.70
2023-03-17T21:18:28.508Z,21.40
2023-03-17T21:21:01.198Z,22.60
2023-03-17T21:24:30.826Z,21.20
2023-03-17T21:27:38.823Z,19.00
2023-03-17T21:30:35.349Z,19.90
2023-03-17T21:33:36.453Z,23.50
2023-03-17T21:36:16.617Z,20.10
2023-03-17T21:39:26.596Z,23.80
2023-03-17T21:41:58.229Z,27.60
2023-03-17T21:44:28.678Z,19.40
2023-03-17T21:46:59.360Z,25.90
2023-03-17T21:49:32.902Z,22.50
2023-03-17T21:52:06.455Z,23.90
2023-03-17T21:54:37.978Z,22.60
2023-03-17T21:57:27.053Z,25.10
2023-03-17T22:00:14.501Z,21.60
2023-03-17T22:02:43.243Z,19.50
2023-03-17T22:05:31.153Z,20.10
2023-03-17T22:08:22.964Z,20.70
2023-03-17T22:10:52.068Z,23.10
2023-03-17T22:14:19.678Z,20.30
2023-03-17T22:17:52.161Z,22.30
2023-03-17T22:21:00.316Z,21.30
2023-03-17T22:24:28.107Z,23.50
2023-03-17T22:27:56.907Z,25.40
2023-03-17T22:31:23.837Z,23.00
2023-03-17T22:35:10.732Z,25.40
2023-03-17T22:38:57.596Z,20.50
2023-03-17T22:42:28.635Z,23.30
2023-03-17T22:45:55.768Z,23.30
2023-03-17T22:49:22.839Z,22.10
2023-03-17T22:52:49.796Z,19.70
2023-03-17T22:55:38.700Z,22.50
2023-03-17T22:59:05.659Z,20.90
2023-03-17T23:02:34.379Z,20.20
2023-03-17T23:06:07.774Z,20.30
2023-03-17T23:09:34.939Z,21.50
2023-03-17T23:12:49.556Z,22.70
2023-03-17T23:16:36.415Z,22.20
2023-03-17T23:19:45.349Z,22.20
2023-03-17T23:23:13.179Z,23.60
2023-03-17T23:26:32.784Z,21.60
2023-03-17T23:29:40.793Z,22.90
2023-03-17T23:32:51.045Z,23.90
2023-03-17T23:36:00.870Z,23.50
